Time;durP1;ratioP1;P1;durP2;ratioP2;P2;SDS_P1;SDS_P2;PMS_P1;PMS_P2;Temp;Humidity;BMP_temperature;BMP_pressure;BME280_temperature;BME280_humidity;BME280_pressure;Samples;Min_cycle;Max_cycle;Signal;HPM_P1;HPM_P2
2024/03/01 00:00:05;;;;;;;36.10;26.52;;;;;;;12.06;61.99;94511.31;4240954;27;20057;-71
2024/03/01 00:02:07;;;;;;;39.03;28.02;;;;;;;12.07;62.04;94509.53;4224561;28;20086;-72
2024/03/01 00:04:08;;;;;;;38.13;28.35;;;;;;;12.04;62.22;94504.59;4218330;28;20093;-74
2024/03/01 00:06:10;;;;;;;35.30;26.63;;;;;;;12.01;62.49;94499.72;4240881;27;20537;-72
2024/03/01 00:08:13;;;;;;;36.47;28.33;;;;;;;12.00;62.56;94501.53;4237640;27;20054;-72
2024/03/01 00:10:15;;;;;;;38.45;27.15;;;;;;;12.01;62.69;94494.47;4242438;27;20078;-70
2024/03/01 00:12:17;;;;;;;42.17;29.52;;;;;;;11.90;62.34;94486.97;4225292;28;20085;-72
2024/03/01 00:14:19;;;;;;;43.20;28.63;;;;;;;11.76;62.86;94486.66;4222938;28;20063;-71
2024/03/01 00:16:21;;;;;;;36.17;28.92;;;;;;;11.71;62.93;94483.75;4238285;27;20047;-69
2024/03/01 00:18:23;;;;;;;42.25;29.60;;;;;;;11.66;63.23;94481.63;4243790;27;20039;-70
2024/03/01 00:20:25;;;;;;;40.22;28.85;;;;;;;11.47;64.05;94471.56;4223954;28;20127;-70
2024/03/01 00:22:27;;;;;;;42.38;29.95;;;;;;;11.17;64.61;94481.00;4242759;27;20138;-69
2024/03/01 00:24:29;;;;;;;40.60;30.50;;;;;;;11.11;64.95;94474.59;4239457;27;20062;-70
2024/03/01 00:26:31;;;;;;;44.47;30.63;;;;;;;11.03;65.28;94464.13;4239523;27;20084;-70
2024/03/01 00:28:34;;;;;;;46.50;30.15;;;;;;;10.72;65.93;94458.81;4241038;27;20039;-71
2024/03/01 00:30:36;;;;;;;42.53;30.98;;;;;;;10.58;66.64;94453.25;4239511;27;20126;-71
2024/03/01 00:32:38;;;;;;;44.38;31.83;;;;;;;10.63;67.07;94450.94;4242913;27;20527;-70
2024/03/01 00:34:40;;;;;;;51.28;33.67;;;;;;;10.58;66.85;94441.94;4239796;27;20100;-69
2024/03/01 00:36:42;;;;;;;42.13;31.08;;;;;;;10.59;67.33;94428.69;4243419;27;20453;-68
2024/03/01 00:38:43;;;;;;;44.28;31.35;;;;;;;10.66;67.20;94432.25;4220670;28;20120;-70
2024/03/01 00:40:45;;;;;;;42.47;30.77;;;;;;;10.77;67.01;94425.06;4234808;27;20074;-69
2024/03/01 00:42:47;;;;;;;43.15;31.50;;;;;;;10.89;66.79;94428.16;4235083;27;20184;-70
2024/03/01 00:44:49;;;;;;;41.85;31.60;;;;;;;10.94;66.27;94423.22;4240177;27;20071;-70
2024/03/01 00:46:51;;;;;;;43.30;31.63;;;;;;;10.97;66.41;94422.88;4239611;27;20674;-69
2024/03/01 00:48:54;;;;;;;48.90;32.45;;;;;;;11.02;66.31;94436.31;4241274;27;20049;-70
2024/03/01 00:50:57;;;;;;;45.35;33.47;;;;;;;10.99;66.63;94432.22;4234028;27;20050;-68
2024/03/01 00:52:59;;;;;;;43.30;30.98;;;;;;;11.06;66.31;94433.19;4240366;27;20344;-70
2024/03/01 00:55:00;;;;;;;48.85;31.65;;;;;;;11.18;65.81;94435.44;4240680;27;20051;-71
2024/03/01 00:57:02;;;;;;;46.50;31.63;;;;;;;11.23;65.93;94426.06;4234883;27;20111;-72
2024/03/01 00:59:04;;;;;;;46.90;31.95;;;;;;;11.26;65.79;94419.66;4242761;27;20115;-71
2024/03/01 01:01:06;;;;;;;53.63;33.53;;;;;;;11.31;65.65;94414.72;4243171;27;20043;-69
2024/03/01 01:03:08;;;;;;;39.95;30.45;;;;;;;11.38;65.30;94420.09;4242480;27;20347;-70
2024/03/01 01:05:11;;;;;;;40.72;30.63;;;;;;;11.43;65.17;94410.75;4224754;28;20468;-70
2024/03/01 01:07:13;;;;;;;43.78;31.65;;;;;;;11.44;65.35;94399.28;4223630;28;20489;-70
2024/03/01 01:09:14;;;;;;;39.65;30.23;;;;;;;11.42;65.18;94395.16;4242667;27;20039;-70
2024/03/01 01:11:16;;;;;;;46.85;31.60;;;;;;;11.45;65.49;94392.22;4234395;27;20480;-68
2024/03/01 01:13:18;;;;;;;43.03;30.35;;;;;;;11.45;65.00;94386.97;4231245;27;20416;-69
2024/03/01 01:15:20;;;;;;;42.33;31.55;;;;;;;11.48;65.17;94389.25;4223966;28;20039;-69
2024/03/01 01:17:22;;;;;;;44.42;29.83;;;;;;;11.51;64.79;94382.81;4243360;27;20070;-69
2024/03/01 01:19:24;;;;;;;47.50;31.30;;;;;;;11.53;64.54;94396.59;4243717;27;20053;-70
2024/03/01 01:21:26;;;;;;;43.05;29.27;;;;;;;11.58;64.23;94395.09;4233933;27;20052;-68
2024/03/01 01:23:28;;;;;;;42.90;31.02;;;;;;;11.60;63.96;94395.75;4240728;27;20051;-69
2024/03/01 01:25:30;;;;;;;39.75;30.40;;;;;;;11.64;63.64;94381.28;4237608;27;20628;-69
2024/03/01 01:27:32;;;;;;;40.83;30.75;;;;;;;11.65;63.71;94379.47;4236915;27;20183;-69
2024/03/01 01:29:34;;;;;;;40.67;29.98;;;;;;;11.63;63.87;94376.22;4241539;27;20083;-70
2024/03/01 01:31:36;;;;;;;44.67;30.88;;;;;;;11.62;63.94;94374.59;4240096;27;20052;-70
2024/03/01 01:33:38;;;;;;;40.22;29.45;;;;;;;11.61;63.92;94378.19;4232475;28;20157;-70
2024/03/01 01:35:40;;;;;;;41.90;31.40;;;;;;;11.59;63.83;94367.03;4240168;27;20043;-70
2024/03/01 01:37:43;;;;;;;43.33;32.58;;;;;;;11.55;63.75;94357.88;4242825;27;20135;-70
2024/03/01 01:39:45;;;;;;;45.90;33.17;;;;;;;11.46;64.70;94359.75;4221562;28;20052;-71
2024/03/01 01:41:47;;;;;;;44.05;32.38;;;;;;;11.43;64.87;94360.91;4222363;28;20047;-70
2024/03/01 01:43:48;;;;;;;46.05;33.17;;;;;;;11.41;65.11;94357.63;4234967;28;20679;-69
2024/03/01 01:45:51;;;;;;;46.97;33.75;;;;;;;11.39;65.34;94351.75;4239586;28;20054;-68
2024/03/01 01:47:53;;;;;;;45.30;33.28;;;;;;;11.36;65.52;94361.78;4235996;28;20274;-69
2024/03/01 01:49:54;;;;;;;44.33;33.17;;;;;;;11.30;65.69;94363.28;4234276;28;20506;-69
2024/03/01 01:51:57;;;;;;;42.88;33.80;;;;;;;11.31;65.69;94362.28;4243147;28;20141;-70
2024/03/01 01:53:59;;;;;;;44.40;31.42;;;;;;;11.30;65.56;94360.66;4238775;28;20051;-69
2024/03/01 01:56:01;;;;;;;46.78;33.00;;;;;;;11.34;65.52;94355.91;4240716;28;20085;-70
2024/03/01 01:58:03;;;;;;;43.45;32.17;;;;;;;11.35;65.85;94353.06;4239758;28;20047;-70
2024/03/01 02:00:06;;;;;;;50.25;32.58;;;;;;;11.37;65.57;94345.84;4242012;28;20134;-69
2024/03/01 02:02:09;;;;;;;41.60;31.30;;;;;;;11.36;65.52;94332.94;4223111;28;20082;-70
2024/03/01 02:04:10;;;;;;;42.78;32.05;;;;;;;11.37;65.71;94332.75;4212846;28;20156;-69
2024/03/01 02:06:13;;;;;;;42.35;31.70;;;;;;;11.34;65.49;94333.09;4242466;28;20051;-69
2024/03/01 02:08:15;;;;;;;43.95;31.70;;;;;;;11.33;65.80;94331.44;4235234;28;20125;-69
2024/03/01 02:10:17;;;;;;;49.05;33.35;;;;;;;11.28;65.76;94347.72;4223155;28;20054;-69
2024/03/01 02:12:19;;;;;;;48.60;33.75;;;;;;;11.24;65.96;94340.34;4235212;28;20084;-69
2024/03/01 02:14:21;;;;;;;49.50;33.33;;;;;;;11.23;65.94;94328.25;4204510;28;20109;-69
2024/03/01 02:16:23;;;;;;;45.00;33.53;;;;;;;11.21;65.82;94319.75;4241394;28;20447;-68
2024/03/01 02:18:26;;;;;;;48.10;34.35;;;;;;;11.14;66.32;94322.22;4232146;28;20052;-67
2024/03/01 02:20:30;;;;;;;45.25;34.13;;;;;;;11.10;66.61;94328.81;4230671;28;20071;-71
2024/03/01 02:22:33;;;;;;;43.42;33.13;;;;;;;11.11;66.20;94337.47;4238709;28;20682;-70
2024/03/01 02:24:35;;;;;;;46.72;34.33;;;;;;;11.12;66.55;94333.84;4240137;28;20055;-69
2024/03/01 02:26:37;;;;;;;44.20;33.25;;;;;;;11.14;66.37;94326.63;4242174;28;20103;-68
2024/03/01 02:28:43;;;;;;;51.72;33.85;;;;;;;11.07;66.16;94322.06;4235882;28;20416;-69
2024/03/01 02:30:46;;;;;;;47.08;34.38;;;;;;;11.06;66.25;94324.88;4242278;28;20303;-71
2024/03/01 02:32:47;;;;;;;47.40;33.88;;;;;;;11.07;66.66;94319.44;4242470;28;20054;-69
2024/03/01 02:34:49;;;;;;;47.13;35.97;;;;;;;11.06;66.34;94333.56;4242361;28;20051;-70
2024/03/01 02:36:51;;;;;;;56.75;34.65;;;;;;;11.05;66.34;94331.91;4240775;28;20049;-69
2024/03/01 02:38:53;;;;;;;49.42;33.88;;;;;;;11.09;66.18;94334.22;4235879;28;20046;-67
2024/03/01 02:40:55;;;;;;;48.38;34.30;;;;;;;11.07;66.28;94329.94;4238824;28;20526;-68
2024/03/01 02:42:57;;;;;;;45.80;33.35;;;;;;;11.07;66.45;94329.94;4228637;28;20120;-68
2024/03/01 02:45:01;;;;;;;43.80;32.20;;;;;;;11.07;66.18;94337.81;4237210;28;20055;-67
2024/03/01 02:47:03;;;;;;;48.60;34.30;;;;;;;11.08;66.42;94336.03;4238098;28;20046;-70
2024/03/01 02:49:05;;;;;;;45.90;33.85;;;;;;;11.09;66.20;94335.03;4233244;27;20100;-68
2024/03/01 02:51:07;;;;;;;45.85;34.10;;;;;;;11.14;65.99;94334.50;4234283;27;20447;-70
2024/03/01 02:53:09;;;;;;;49.53;34.28;;;;;;;11.17;66.24;94334.19;4234388;27;20579;-69
2024/03/01 02:55:10;;;;;;;51.00;33.85;;;;;;;11.19;66.06;94333.00;4223768;28;20054;-66
2024/03/01 02:57:12;;;;;;;45.72;33.70;;;;;;;11.17;66.15;94326.31;4239232;27;20433;-69
2024/03/01 02:59:14;;;;;;;48.63;34.97;;;;;;;11.16;65.87;94316.81;4242009;27;20250;-69
2024/03/01 03:01:16;;;;;;;47.70;34.13;;;;;;;11.16;66.32;94311.56;4223315;28;20456;-70
2024/03/01 03:03:18;;;;;;;48.55;34.03;;;;;;;11.19;66.20;94312.03;4239638;27;20051;-71
2024/03/01 03:05:20;;;;;;;47.70;32.08;;;;;;;11.15;65.81;94309.94;4241156;27;20509;-71
2024/03/01 03:07:21;;;;;;;42.17;32.17;;;;;;;11.07;66.11;94316.03;4244584;27;20479;-70
2024/03/01 03:09:23;;;;;;;50.75;33.75;;;;;;;11.02;66.49;94313.91;4239964;27;20384;-70
2024/03/01 03:11:25;;;;;;;47.33;34.58;;;;;;;11.02;66.56;94298.19;4238048;27;20053;-71
2024/03/01 03:13:27;;;;;;;49.53;34.13;;;;;;;11.01;66.52;94298.34;4238770;27;20051;-69
2024/03/01 03:15:29;;;;;;;47.92;32.95;;;;;;;10.99;66.52;94289.84;4245173;27;20444;-69
2024/03/01 03:17:31;;;;;;;41.75;32.95;;;;;;;10.98;66.55;94296.09;4242547;27;20448;-69
2024/03/01 03:19:34;;;;;;;46.05;32.65;;;;;;;10.99;66.32;94302.94;4222785;28;20044;-69
2024/03/01 03:21:36;;;;;;;48.78;33.10;;;;;;;11.00;66.37;94292.31;4212886;28;20047;-69
2024/03/01 03:23:38;;;;;;;43.13;32.53;;;;;;;11.00;65.98;94299.34;4241640;27;20052;-69
2024/03/01 03:25:40;;;;;;;41.22;31.38;;;;;;;10.97;65.99;94297.91;4234064;27;20056;-69
2024/03/01 03:27:42;;;;;;;47.08;32.03;;;;;;;10.96;66.28;94291.00;4230939;27;20051;-69
2024/03/01 03:29:45;;;;;;;44.20;31.95;;;;;;;10.93;66.09;94272.22;4237614;27;20156;-71
2024/03/01 03:31:47;;;;;;;46.72;30.48;;;;;;;10.85;66.43;94275.69;4244537;27;20463;-71
2024/03/01 03:33:49;;;;;;;43.63;31.27;;;;;;;10.82;66.39;94260.31;4239463;27;20061;-69
2024/03/01 03:35:51;;;;;;;47.13;31.98;;;;;;;10.82;66.47;94260.31;4238744;27;20122;-70
2024/03/01 03:37:52;;;;;;;45.28;30.55;;;;;;;10.82;66.03;94260.31;4242944;27;20043;-68
2024/03/01 03:39:54;;;;;;;47.78;30.65;;;;;;;10.68;65.95;94271.50;4243703;27;20039;-69
2024/03/01 03:41:56;;;;;;;43.13;29.98;;;;;;;10.66;66.05;94276.91;4225025;28;20063;-69
2024/03/01 03:43:58;;;;;;;39.47;29.67;;;;;;;10.66;65.91;94280.31;4242325;27;20154;-68
2024/03/01 03:46:00;;;;;;;44.25;29.65;;;;;;;10.66;65.75;94288.19;4241254;27;20047;-69
2024/03/01 03:48:04;;;;;;;38.00;29.00;;;;;;;10.60;65.89;94281.03;4244483;27;20214;-68
2024/03/01 03:50:07;;;;;;;38.80;27.85;;;;;;;10.57;65.99;94286.59;4243437;27;20050;-69
2024/03/01 03:52:09;;;;;;;36.07;26.73;;;;;;;10.50;65.89;94277.78;4240223;27;20051;-69
2024/03/01 03:54:15;;;;;;;34.90;26.08;;;;;;;10.49;65.79;94270.91;4240337;27;20055;-71
2024/03/01 03:56:17;;;;;;;36.13;24.95;;;;;;;10.51;65.04;94276.78;4232353;27;20082;-68
2024/03/01 03:58:19;;;;;;;33.88;26.17;;;;;;;10.51;64.64;94281.22;4238823;27;20054;-67
2024/03/01 04:00:21;;;;;;;41.03;30.02;;;;;;;10.51;64.79;94276.78;4244673;27;20049;-69
2024/03/01 04:02:22;;;;;;;46.25;32.83;;;;;;;10.49;66.00;94278.75;4241105;27;20123;-70
2024/03/01 04:04:25;;;;;;;43.60;33.25;;;;;;;10.49;66.54;94294.47;4241605;27;20141;-71
2024/03/01 04:06:27;;;;;;;47.78;34.40;;;;;;;10.45;66.42;94285.31;4224104;28;20078;-68
2024/03/01 04:08:29;;;;;;;46.83;34.00;;;;;;;10.43;66.46;94275.03;4235282;27;20436;-69
2024/03/01 04:10:33;;;;;;;43.65;35.00;;;;;;;10.24;67.01;94270.13;4241234;27;20055;-70
2024/03/01 04:12:36;;;;;;;48.80;34.95;;;;;;;10.12;67.93;94274.88;4240806;27;20075;-70
2024/03/01 04:14:38;;;;;;;44.15;34.60;;;;;;;10.15;68.23;94277.19;4223946;28;20044;-69
2024/03/01 04:16:40;;;;;;;48.13;33.90;;;;;;;10.18;68.00;94269.00;4223651;28;20063;-69
2024/03/01 04:18:41;;;;;;;47.53;34.60;;;;;;;10.09;68.23;94250.84;4242511;27;20458;-68
2024/03/01 04:20:44;;;;;;;64.47;48.10;;;;;;;9.86;68.81;94251.53;4217977;28;20109;-70
2024/03/01 04:22:46;;;;;;;49.08;36.53;;;;;;;9.64;68.86;94253.84;4231955;27;20053;-71
2024/03/01 04:24:48;;;;;;;46.15;32.92;;;;;;;9.66;68.73;94251.09;4218571;28;20052;-68
2024/03/01 04:26:50;;;;;;;44.40;31.85;;;;;;;9.73;68.10;94261.69;4219932;28;20104;-70
2024/03/01 04:28:52;;;;;;;45.08;32.67;;;;;;;9.83;68.50;94262.34;4238721;27;20122;-72
2024/03/01 04:30:54;;;;;;;46.05;32.90;;;;;;;9.92;68.22;94261.34;4242225;27;20043;-70
2024/03/01 04:32:56;;;;;;;45.80;33.47;;;;;;;10.01;67.82;94267.41;4239828;27;20087;-69
2024/03/01 04:34:58;;;;;;;47.20;33.30;;;;;;;10.12;67.82;94271.47;4241533;27;20047;-69
2024/03/01 04:37:00;;;;;;;48.22;33.90;;;;;;;10.18;66.72;94268.19;4241431;27;20119;-69
2024/03/01 04:39:05;;;;;;;51.72;33.22;;;;;;;9.96;67.70;94265.28;4242384;27;20159;-70
2024/03/01 04:41:15;;;;;;;46.20;33.65;;;;;;;9.98;67.74;94275.56;4235901;27;20047;-69
2024/03/01 04:43:17;;;;;;;48.20;33.17;;;;;;;10.01;67.66;94276.06;4240926;27;20148;-66
2024/03/01 04:45:19;;;;;;;45.85;32.42;;;;;;;10.12;67.78;94276.69;4232648;27;20043;-69
2024/03/01 04:47:21;;;;;;;45.50;32.92;;;;;;;10.17;67.64;94277.81;4243116;27;20476;-68
2024/03/01 04:49:23;;;;;;;45.88;33.70;;;;;;;10.21;67.19;94266.03;4237042;27;20044;-70
2024/03/01 04:51:25;;;;;;;46.08;33.70;;;;;;;10.26;66.87;94278.66;4243536;27;20043;-67
2024/03/01 04:53:27;;;;;;;45.40;31.65;;;;;;;10.32;66.85;94266.69;4242110;27;20043;-68
2024/03/01 04:55:29;;;;;;;42.20;32.58;;;;;;;10.37;66.68;94290.59;4242669;27;20058;-69
2024/03/01 04:57:32;;;;;;;51.20;32.92;;;;;;;10.42;66.54;94276.00;4241614;27;20036;-69
2024/03/01 04:59:38;;;;;;;45.80;33.42;;;;;;;10.49;66.36;94284.00;4241998;27;20571;-69
2024/03/01 05:01:41;;;;;;;42.08;31.25;;;;;;;10.55;66.01;94282.50;4244044;27;20538;-70
2024/03/01 05:03:44;;;;;;;46.60;32.53;;;;;;;10.55;66.03;94285.13;4223804;28;20429;-70
2024/03/01 05:05:46;;;;;;;48.55;34.13;;;;;;;10.57;66.21;94286.59;4235467;27;20043;-71
2024/03/01 05:07:48;;;;;;;50.17;33.60;;;;;;;10.44;66.33;94276.66;4243126;27;20092;-70
2024/03/01 05:09:50;;;;;;;46.00;33.00;;;;;;;10.41;66.79;94284.00;4224741;28;20075;-70
2024/03/01 05:11:53;;;;;;;41.70;31.70;;;;;;;10.40;66.31;94274.53;4242145;27;20046;-70
2024/03/01 05:13:55;;;;;;;45.20;31.48;;;;;;;10.40;66.48;94279.78;4239725;27;20054;-71
2024/03/01 05:15:59;;;;;;;42.25;31.45;;;;;;;10.42;66.29;94268.13;4243202;27;20055;-69
2024/03/01 05:18:01;;;;;;;43.50;30.90;;;;;;;10.44;65.68;94276.66;4242138;27;20093;-70
2024/03/01 05:20:10;;;;;;;40.28;28.42;;;;;;;10.48;65.37;94269.28;4240531;27;20083;-71
2024/03/01 05:22:12;;;;;;;43.60;30.67;;;;;;;10.51;65.47;94276.78;4234841;27;20150;-70
2024/03/01 05:24:15;;;;;;;35.85;26.23;;;;;;;10.46;64.67;94284.34;4233019;27;20105;-70
2024/03/01 05:26:17;;;;;;;38.22;26.45;;;;;;;10.32;64.60;94288.44;4230215;27;20048;-70
2024/03/01 05:28:19;;;;;;;35.92;25.58;;;;;;;10.34;64.70;94290.91;4224722;28;20466;-71
2024/03/01 05:30:23;;;;;;;40.38;29.70;;;;;;;10.38;64.49;94298.25;4241829;27;20149;-70
2024/03/01 05:32:46;;;;;;;51.90;32.95;;;;;;;10.24;66.70;94302.38;4240281;27;20726;-73
2024/03/01 05:34:48;;;;;;;45.03;31.73;;;;;;;10.23;66.59;94307.75;4233284;28;20100;-71
2024/03/01 05:36:50;;;;;;;44.88;33.88;;;;;;;10.13;66.70;94304.50;4235598;27;20113;-69
2024/03/01 05:38:52;;;;;;;47.97;33.60;;;;;;;10.04;67.29;94298.44;4239263;27;20047;-71
2024/03/01 05:40:54;;;;;;;45.40;33.10;;;;;;;9.90;68.22;94309.59;4242735;27;20506;-67
2024/03/01 05:42:57;;;;;;;58.92;35.03;;;;;;;9.76;68.30;94309.25;4237169;28;20115;-70
2024/03/01 05:44:59;;;;;;;46.83;32.97;;;;;;;9.63;67.89;94307.13;4237919;28;20486;-70
2024/03/01 05:47:01;;;;;;;41.75;31.58;;;;;;;9.71;68.59;94318.59;4238378;28;20047;-71
2024/03/01 05:49:04;;;;;;;46.90;32.53;;;;;;;9.81;67.85;94316.63;4240936;28;20043;-70
2024/03/01 05:51:06;;;;;;;43.78;30.02;;;;;;;9.97;67.20;94323.66;4215471;28;20048;-67
2024/03/01 05:53:14;;;;;;;45.55;32.38;;;;;;;10.10;67.41;94325.78;4237213;28;20055;-72
2024/03/01 05:55:17;;;;;;;44.58;32.83;;;;;;;10.17;66.96;94319.69;4239676;28;20058;-69
2024/03/01 05:57:19;;;;;;;54.50;33.10;;;;;;;10.19;66.71;94315.13;4230522;28;20083;-68
2024/03/01 05:59:22;;;;;;;48.00;33.10;;;;;;;9.95;67.14;94302.06;4234944;28;20122;-71
2024/03/01 06:01:24;;;;;;;54.92;34.28;;;;;;;9.70;67.94;94299.47;4243224;28;20083;-74
2024/03/01 06:03:27;;;;;;;49.53;34.92;;;;;;;9.77;68.60;94299.63;4240986;28;20047;-71
2024/03/01 06:05:29;;;;;;;51.80;32.85;;;;;;;9.87;68.33;94299.44;4238166;28;20072;-72
2024/03/01 06:07:31;;;;;;;44.20;31.92;;;;;;;9.99;67.51;94296.34;4242203;28;20388;-72
2024/03/01 06:09:33;;;;;;;47.45;32.42;;;;;;;10.12;66.93;94298.44;4224583;28;20128;-72
2024/03/01 06:11:35;;;;;;;44.05;30.65;;;;;;;10.17;66.74;94284.84;4229071;28;20130;-71
2024/03/01 06:13:38;;;;;;;41.05;29.00;;;;;;;10.31;66.30;94286.03;4234194;28;20097;-70
2024/03/01 06:15:40;;;;;;;52.55;32.15;;;;;;;10.39;65.88;94285.97;4224607;28;20527;-71
2024/03/01 06:17:42;;;;;;;51.60;33.33;;;;;;;10.50;65.88;94295.31;4241095;28;20112;-71
2024/03/01 06:19:44;;;;;;;55.65;33.17;;;;;;;10.59;65.75;94289.03;4236959;28;20452;-69
2024/03/01 06:21:46;;;;;;;46.17;32.80;;;;;;;10.65;65.97;94272.66;4230407;28;20395;-70
2024/03/01 06:23:48;;;;;;;46.33;32.72;;;;;;;10.65;65.44;94265.59;4234343;27;20142;-70
2024/03/01 06:25:50;;;;;;;48.47;29.67;;;;;;;10.56;64.99;94273.66;4246893;27;20100;-72
2024/03/01 06:27:52;;;;;;;51.15;31.23;;;;;;;10.59;65.32;94279.38;4243367;27;20139;-72
2024/03/01 06:29:54;;;;;;;51.55;31.60;;;;;;;10.62;64.98;94284.28;4217513;28;20075;-73
2024/03/01 06:31:56;;;;;;;40.17;28.00;;;;;;;10.61;64.79;94281.84;4237180;27;20122;-72
2024/03/01 06:33:58;;;;;;;52.33;31.13;;;;;;;10.65;64.74;94278.72;4231550;27;20048;-70
2024/03/01 06:36:01;;;;;;;45.53;31.33;;;;;;;10.75;64.66;94291.59;4240432;27;20126;-71
2024/03/01 06:38:03;;;;;;;49.38;31.50;;;;;;;10.82;64.36;94302.22;4243083;27;20161;-70
2024/03/01 06:40:09;;;;;;;50.25;32.70;;;;;;;10.88;64.39;94313.81;4244057;27;20259;-69
2024/03/01 06:42:12;;;;;;;51.25;32.80;;;;;;;10.89;64.63;94316.28;4238666;27;20051;-71
2024/03/01 06:44:14;;;;;;;48.10;33.50;;;;;;;10.92;64.47;94309.88;4239616;27;20142;-70
2024/03/01 06:46:16;;;;;;;48.17;32.30;;;;;;;10.92;64.43;94304.63;4241001;27;20546;-72
2024/03/01 06:48:18;;;;;;;50.03;33.40;;;;;;;10.89;64.66;94311.03;4236541;27;21667;-70
2024/03/01 06:50:23;;;;;;;50.65;32.17;;;;;;;10.88;64.50;94312.00;4234563;27;20055;-70
2024/03/01 06:52:25;;;;;;;51.97;33.05;;;;;;;10.91;63.80;94308.25;4225400;28;20138;-72
2024/03/01 06:54:27;;;;;;;55.67;35.40;;;;;;;10.86;65.03;94308.75;4245324;27;20463;-72
2024/03/01 06:56:29;;;;;;;51.40;32.50;;;;;;;10.90;64.92;94309.22;4226897;28;20058;-71
2024/03/01 06:58:31;;;;;;;39.28;29.75;;;;;;;10.94;64.19;94307.91;4245180;27;20051;-72
2024/03/01 07:00:33;;;;;;;42.72;27.90;;;;;;;10.99;64.36;94301.16;4244530;27;20047;-72
2024/03/01 07:02:35;;;;;;;43.95;27.63;;;;;;;11.05;63.51;94305.69;4239350;27;20082;-70
2024/03/01 07:04:37;;;;;;;38.38;26.15;;;;;;;11.10;63.17;94299.13;4237209;27;20127;-70
2024/03/01 07:06:39;;;;;;;38.10;25.48;;;;;;;11.12;62.69;94289.28;4242066;27;20117;-70
2024/03/01 07:08:42;;;;;;;37.05;24.05;;;;;;;11.15;62.67;94284.53;4243011;27;20055;-70
2024/03/01 07:10:44;;;;;;;33.17;25.38;;;;;;;11.15;62.44;94275.84;4244576;27;20044;-71
2024/03/01 07:12:47;;;;;;;38.95;24.77;;;;;;;11.16;62.16;94265.19;4242915;27;20047;-70
2024/03/01 07:14:49;;;;;;;38.72;24.77;;;;;;;11.06;61.92;94270.66;4237871;27;20138;-70
2024/03/01 07:16:51;;;;;;;36.08;24.20;;;;;;;11.06;61.97;94268.03;4245148;27;20045;-70
2024/03/01 07:18:52;;;;;;;39.30;24.38;;;;;;;11.06;61.88;94273.28;4233089;27;20047;-71
2024/03/01 07:20:54;;;;;;;35.20;24.05;;;;;;;10.99;62.34;94272.34;4241394;27;20108;-71
2024/03/01 07:22:56;;;;;;;45.50;23.98;;;;;;;11.01;62.62;94270.38;4232258;27;20126;-71
2024/03/01 07:24:58;;;;;;;32.58;24.30;;;;;;;11.10;62.51;94265.06;4241291;27;20135;-70
2024/03/01 07:27:00;;;;;;;34.17;24.75;;;;;;;11.16;62.46;94251.25;4238550;27;20047;-71
2024/03/01 07:29:02;;;;;;;34.45;24.38;;;;;;;11.24;62.34;94251.22;4244473;27;20047;-72
2024/03/01 07:31:04;;;;;;;32.47;24.75;;;;;;;11.24;61.98;94266.94;4224469;28;20364;-71
2024/03/01 07:33:06;;;;;;;32.92;25.15;;;;;;;11.15;61.97;94263.56;4233475;27;20423;-71
2024/03/01 07:35:08;;;;;;;35.25;25.73;;;;;;;11.12;62.14;94266.53;4244495;27;20063;-70
2024/03/01 07:37:12;;;;;;;35.80;25.20;;;;;;;11.08;62.28;94270.50;4244973;27;20409;-69
2024/03/01 07:39:13;;;;;;;34.45;25.75;;;;;;;11.05;62.47;94279.50;4240934;27;20073;-70
2024/03/01 07:41:18;;;;;;;33.85;24.67;;;;;;;11.09;62.50;94279.16;4224495;28;20051;-72
2024/03/01 07:43:20;;;;;;;37.17;25.38;;;;;;;11.06;62.74;94281.13;4238599;27;20043;-71
2024/03/01 07:45:22;;;;;;;34.83;25.83;;;;;;;11.11;62.64;94280.63;4214941;28;20104;-72
2024/03/01 07:47:29;;;;;;;38.75;25.80;;;;;;;11.17;62.37;94289.59;4226116;28;20039;-72
2024/03/01 07:49:32;;;;;;;35.85;26.65;;;;;;;11.17;62.36;94293.03;4231134;27;20048;-70
2024/03/01 07:51:35;;;;;;;34.47;26.08;;;;;;;11.12;62.74;94287.50;4239373;27;20242;-72
2024/03/01 07:53:37;;;;;;;40.90;28.00;;;;;;;11.03;63.07;94293.75;4242738;27;20181;-72
2024/03/01 07:55:39;;;;;;;41.22;26.80;;;;;;;11.11;63.15;94298.16;4231356;27;20101;-73
2024/03/01 07:57:41;;;;;;;39.92;26.23;;;;;;;11.26;62.85;94306.91;4239413;27;20046;-72
2024/03/01 07:59:43;;;;;;;45.17;27.23;;;;;;;11.35;62.14;94313.75;4236527;27;20054;-71
2024/03/01 08:01:45;;;;;;;41.40;27.13;;;;;;;11.42;62.42;94314.69;4225790;28;20108;-71
2024/03/01 08:03:47;;;;;;;45.83;30.27;;;;;;;11.52;62.01;94311.03;4243495;27;20050;-71
2024/03/01 08:05:49;;;;;;;41.03;30.10;;;;;;;11.60;62.08;94303.09;4242515;27;20070;-74
2024/03/01 08:07:51;;;;;;;38.42;29.58;;;;;;;11.64;61.96;94296.53;4237523;27;20040;-71
2024/03/01 08:09:53;;;;;;;38.80;28.48;;;;;;;11.70;61.63;94308.91;4225236;28;20043;-71
2024/03/01 08:11:56;;;;;;;45.95;31.95;;;;;;;11.69;62.00;94310.72;4243367;27;20043;-72
2024/03/01 08:14:00;;;;;;;49.53;31.90;;;;;;;11.73;61.88;94308.59;4225984;28;20508;-71
2024/03/01 08:16:04;;;;;;;53.20;32.05;;;;;;;11.78;61.88;94318.53;4244280;27;20050;-70
2024/03/01 08:18:17;;;;;;;41.97;32.25;;;;;;;11.78;61.49;94316.72;4223999;28;20194;-71
2024/03/01 08:21:07;;;;;;;51.97;31.60;;;;;;;11.78;61.25;94318.53;4238819;27;20145;-73
2024/03/01 08:23:11;;;;;;;42.67;30.45;;;;;;;11.82;61.42;94307.53;4240380;27;20627;-69
2024/03/01 08:25:13;;;;;;;46.47;29.30;;;;;;;11.84;61.03;94309.97;4225220;28;20184;-71
2024/03/01 08:27:19;;;;;;;44.40;30.50;;;;;;;11.93;61.21;94316.81;4221290;28;20112;-70
2024/03/01 08:29:21;;;;;;;41.40;30.63;;;;;;;11.86;60.72;94308.00;4235292;27;20081;-73
2024/03/01 08:31:28;;;;;;;39.95;29.30;;;;;;;11.61;61.32;94310.78;4237970;27;20058;-71
2024/03/01 08:33:33;;;;;;;50.35;30.85;;;;;;;11.63;61.41;94297.50;4203353;28;20052;-73
2024/03/01 08:35:36;;;;;;;45.45;30.42;;;;;;;11.75;61.31;94305.78;4244548;27;20482;-72
2024/03/01 08:37:38;;;;;;;46.10;30.07;;;;;;;11.83;61.25;94300.44;4243927;27;20043;-71
2024/03/01 08:39:40;;;;;;;46.97;28.15;;;;;;;11.86;60.68;94287.81;4229514;27;20366;-71
2024/03/01 08:41:52;;;;;;;38.65;27.15;;;;;;;11.86;60.35;94293.06;4229898;27;20047;-69
2024/03/01 08:43:57;;;;;;;36.90;27.20;;;;;;;11.89;60.62;94297.16;4237799;27;20389;-71
2024/03/01 08:46:01;;;;;;;37.63;26.42;;;;;;;11.91;60.31;94310.13;4215464;28;20484;-70
2024/03/01 08:48:12;;;;;;;39.00;26.60;;;;;;;12.02;59.83;94307.91;4239956;27;20087;-70
2024/03/01 08:50:23;;;;;;;40.03;26.13;;;;;;;12.13;59.21;94311.91;4214365;28;20051;-70
2024/03/01 08:52:38;;;;;;;42.67;25.48;;;;;;;12.19;59.19;94308.53;4242390;27;20125;-69
2024/03/01 08:54:42;;;;;;;39.15;27.30;;;;;;;12.34;58.83;94310.38;4228811;27;20047;-70
2024/03/01 08:56:53;;;;;;;39.20;25.52;;;;;;;12.43;58.72;94306.69;4219955;28;20055;-71
2024/03/01 08:58:56;;;;;;;39.97;26.88;;;;;;;12.44;58.33;94316.19;4224780;28;20082;-71
2024/03/01 09:00:57;;;;;;;39.95;27.23;;;;;;;12.50;58.71;94323.38;4219755;28;20056;-70
2024/03/01 09:03:00;;;;;;;40.47;27.23;;;;;;;12.24;59.32;94329.03;4243982;27;20146;-73
2024/03/01 09:05:01;;;;;;;43.47;28.55;;;;;;;11.99;59.91;94329.25;4242628;27;20058;-73
2024/03/01 09:07:13;;;;;;;38.97;28.38;;;;;;;12.06;60.48;94329.34;4232583;27;20059;-69
2024/03/01 09:09:21;;;;;;;40.15;27.60;;;;;;;12.17;59.96;94331.53;4242841;27;20126;-72
2024/03/01 09:11:23;;;;;;;39.58;25.50;;;;;;;12.25;59.28;94328.03;4243919;27;20054;-72
2024/03/01 09:13:26;;;;;;;32.40;22.58;;;;;;;12.28;58.29;94325.88;4242985;27;20047;-70
2024/03/01 09:15:40;;;;;;;34.30;23.58;;;;;;;12.28;58.02;94320.63;4242993;27;20085;-70
2024/03/01 09:17:42;;;;;;;;;;;;;;;12.31;57.76;94308.94;4215664;28;20171;-71
2024/03/01 09:19:49;;;;;;;33.00;24.33;;;;;;;12.32;58.41;94307.13;4240020;27;19923;-70
2024/03/01 09:21:51;;;;;;;45.03;27.63;;;;;;;12.32;58.29;94301.88;4215685;28;20128;-70
2024/03/01 09:23:53;;;;;;;39.03;26.45;;;;;;;12.30;58.41;94304.66;4240549;27;20047;-72